Time;durP1;ratioP1;P1;durP2;ratioP2;P2;SDS_P1;SDS_P2;PMS_P1;PMS_P2;Temp;Humidity;BMP_temperature;BMP_pressure;BME280_temperature;BME280_humidity;BME280_pressure;Samples;Min_cycle;Max_cycle;Signal;HPM_P1;HPM_P2
2022/10/01 00:00:22;;;;;;;25.88;14.58;;;;;;;10.84;100.00;97848.20;1765144;80;22160;-87
2022/10/01 00:02:49;;;;;;;24.50;14.20;;;;;;;10.83;100.00;97848.75;1748063;81;21390;-84
2022/10/01 00:05:15;;;;;;;29.45;15.78;;;;;;;10.83;100.00;97841.17;1746927;82;20881;-85
2022/10/01 00:07:44;;;;;;;21.65;14.23;;;;;;;10.82;100.00;97836.84;1762534;79;20972;-85
2022/10/01 00:10:12;;;;;;;28.60;15.35;;;;;;;10.82;100.00;97831.42;1750619;80;21097;-88
2022/10/01 00:12:38;;;;;;;29.23;16.12;;;;;;;10.82;100.00;97836.84;1761817;79;21015;-87
2022/10/01 00:15:08;;;;;;;25.85;15.98;;;;;;;10.80;100.00;97824.94;1774140;80;20963;-85
2022/10/01 00:17:33;;;;;;;28.32;16.73;;;;;;;10.78;100.00;97819.00;1774523;79;21003;-87
2022/10/01 00:19:59;;;;;;;46.60;32.48;;;;;;;10.74;100.00;97820.10;1773678;80;20912;-86
2022/10/01 00:22:25;;;;;;;38.60;24.43;;;;;;;10.71;100.00;97821.23;1765172;79;21039;-85
2022/10/01 00:24:51;;;;;;;25.77;15.10;;;;;;;10.66;100.00;97816.66;1722648;82;20924;-87
2022/10/01 00:27:17;;;;;;;28.02;15.23;;;;;;;10.64;100.00;97813.98;1749200;79;20955;-87
2022/10/01 00:29:44;;;;;;;25.05;14.58;;;;;;;10.62;100.00;97808.84;1774360;80;20872;-84
2022/10/01 00:32:10;;;;;;;20.80;14.33;;;;;;;10.62;100.00;97814.81;1773826;79;20995;-87
2022/10/01 00:34:36;;;;;;;22.52;13.90;;;;;;;10.60;100.00;97806.98;1773763;80;21237;-85
2022/10/01 00:37:02;;;;;;;23.83;14.70;;;;;;;10.59;100.00;97803.98;1774705;79;21526;-85
2022/10/01 00:39:28;;;;;;;25.85;14.63;;;;;;;10.61;100.00;97795.59;1774315;80;20967;-87
2022/10/01 00:41:53;;;;;;;25.43;14.60;;;;;;;10.60;100.00;97800.20;1773672;80;20872;-84
2022/10/01 00:44:34;;;;;;;25.17;14.07;;;;;;;10.60;100.00;97804.81;1770803;79;20983;-84
2022/10/01 00:47:12;;;;;;;22.85;13.60;;;;;;;10.58;100.00;97806.98;1776213;79;21288;-87
2022/10/01 00:49:38;;;;;;;21.70;14.83;;;;;;;10.58;100.00;97802.36;1732096;81;21326;-85
2022/10/01 00:52:08;;;;;;;19.62;13.50;;;;;;;10.58;100.00;97805.63;1740159;79;21003;-85
2022/10/01 00:54:45;;;;;;;28.42;14.47;;;;;;;10.59;100.00;97805.87;1732946;82;20976;-88
2022/10/01 00:57:14;;;;;;;25.45;14.90;;;;;;;10.59;100.00;97815.36;1732553;82;21027;-84
2022/10/01 00:59:39;;;;;;;21.87;13.60;;;;;;;10.59;100.00;97808.04;1730657;82;21135;-85
2022/10/01 01:02:05;;;;;;;21.00;13.05;;;;;;;10.60;100.00;97808.33;1725536;81;20953;-84
2022/10/01 01:04:31;;;;;;;20.77;13.15;;;;;;;10.57;100.00;97813.49;1749283;80;20897;-87
2022/10/01 01:06:59;;;;;;;101.47;43.95;;;;;;;10.59;100.00;97822.94;1724490;82;20849;-84
2022/10/01 01:09:46;;;;;;;46.90;26.55;;;;;;;10.59;100.00;97825.66;1747302;82;21024;-84
2022/10/01 01:12:27;;;;;;;41.25;19.50;;;;;;;10.61;100.00;97822.69;1736682;80;21151;-88
2022/10/01 01:15:28;;;;;;;34.85;18.07;;;;;;;10.62;100.00;97820.23;1711522;83;21017;-87
2022/10/01 01:18:14;;;;;;;26.85;16.40;;;;;;;10.60;100.00;97808.33;1751991;78;20992;-87
2022/10/01 01:21:01;;;;;;;22.07;14.80;;;;;;;10.55;100.00;97804.84;1733459;80;21063;-85
2022/10/01 01:23:44;;;;;;;37.95;21.80;;;;;;;10.53;100.00;97806.48;1743730;81;21216;-86
2022/10/01 01:26:37;;;;;;;23.38;15.20;;;;;;;10.49;100.00;97812.75;1726990;80;21179;-84
2022/10/01 01:37:11;;;;;;;22.30;13.08;;;;;;;10.46;100.00;97820.91;1728604;81;21055;-84
2022/10/01 01:39:34;;;;;;;21.75;12.80;;;;;;;10.45;100.00;97824.16;1776132;80;20983;-87
2022/10/01 01:42:05;;;;;;;26.30;13.03;;;;;;;10.47;100.00;97833.35;1782798;77;21078;-84
2022/10/01 01:44:36;;;;;;;140.30;65.15;;;;;;;10.48;100.00;97832.26;1823985;78;21027;-85
2022/10/01 01:47:03;;;;;;;174.42;75.40;;;;;;;10.49;100.00;97837.13;1805865;78;21023;-87
2022/10/01 01:49:28;;;;;;;127.90;55.00;;;;;;;10.54;100.00;97842.52;1785146;80;20964;-84
2022/10/01 01:52:14;;;;;;;105.10;43.95;;;;;;;10.57;100.00;97839.23;1783438;80;21039;-86
2022/10/01 01:54:46;;;;;;;43.63;19.67;;;;;;;10.56;100.00;97840.33;1788174;78;21183;-85
2022/10/01 01:57:12;;;;;;;36.00;26.00;;;;;;;10.57;100.00;97837.33;1805178;78;21050;-84
2022/10/01 01:59:39;;;;;;;22.82;16.85;;;;;;;10.54;100.00;97842.52;1783241;80;21421;-87
2022/10/01 02:02:07;;;;;;;41.30;21.75;;;;;;;10.52;100.00;97836.03;1782816;79;20995;-87
2022/10/01 02:04:43;;;;;;;38.02;18.30;;;;;;;10.51;100.00;97843.06;1782951;80;20982;-85
2022/10/01 02:07:21;;;;;;;21.68;14.43;;;;;;;10.47;100.00;97837.41;1783005;79;21474;-87
2022/10/01 02:10:13;;;;;;;20.72;12.65;;;;;;;10.43;100.00;97831.77;1783303;80;21035;-87
2022/10/01 08:56:28;;;;;;;18.10;11.88;;;;;;;13.36;100.00;97709.99;1771738;78;20986;-85
2022/10/01 08:59:01;;;;;;;19.37;12.07;;;;;;;13.41;100.00;97702.50;1786074;78;21029;-87
2022/10/01 09:01:28;;;;;;;20.50;13.70;;;;;;;13.47;100.00;97697.77;1774591;78;21016;-85
2022/10/01 09:03:55;;;;;;;20.40;13.83;;;;;;;13.61;100.00;97697.19;1816847;77;21846;-87
2022/10/01 09:06:24;;;;;;;19.10;12.25;;;;;;;13.74;100.00;97697.68;1800522;78;21123;-87
2022/10/01 09:09:18;;;;;;;17.67;11.78;;;;;;;13.76;100.00;97698.76;1783551;77;20993;-85
2022/10/01 09:12:03;;;;;;;22.82;12.20;;;;;;;13.77;100.00;97699.00;1803657;79;21258;-86
2022/10/01 09:15:01;;;;;;;17.65;12.05;;;;;;;13.73;100.00;97701.52;1788191;78;20996;-87
2022/10/01 09:18:06;;;;;;;14.63;10.65;;;;;;;13.80;100.00;97699.73;1786095;78;21047;-85
2022/10/01 09:20:40;;;;;;;17.80;11.12;;;;;;;13.73;100.00;97693.34;1786205;78;21163;-85
2022/10/01 09:23:29;;;;;;;20.75;12.82;;;;;;;13.78;100.00;97693.25;1794680;79;21054;-85
2022/10/01 09:25:58;;;;;;;24.82;14.75;;;;;;;13.85;100.00;97690.10;1805229;76;21458;-87
2022/10/01 09:28:32;;;;;;;23.55;14.23;;;;;;;13.93;100.00;97691.25;1809590;78;21012;-87
2022/10/01 09:31:07;;;;;;;18.48;13.70;;;;;;;13.97;100.00;97691.70;1808284;78;21070;-87
2022/10/01 09:33:39;;;;;;;19.67;13.18;;;;;;;14.01;100.00;97683.14;1811942;76;21154;-87
2022/10/01 09:36:22;;;;;;;256.00;165.70;;;;;;;14.02;100.00;97684.78;1799319;77;20958;-87
2022/10/01 09:39:05;;;;;;;30.02;20.52;;;;;;;14.02;100.00;97682.05;1824738;77;20998;-86
2022/10/01 09:41:31;;;;;;;34.92;31.12;;;;;;;14.03;100.00;97681.50;1827042;77;20950;-87
2022/10/01 09:43:57;;;;;;;65.75;54.65;;;;;;;14.02;100.00;97676.61;1828191;77;20957;-85
2022/10/01 09:46:25;;;;;;;49.65;34.78;;;;;;;14.05;100.00;97673.25;1827921;77;21135;-84
2022/10/01 09:49:14;;;;;;;15.83;12.55;;;;;;;14.15;100.00;97676.27;1827786;77;21386;-85
2022/10/01 09:51:45;;;;;;;29.50;26.60;;;;;;;14.25;100.00;97673.29;1805279;78;21478;-85
2022/10/01 09:54:22;;;;;;;11.45;8.33;;;;;;;14.32;100.00;97671.48;1827301;77;21038;-88
2022/10/01 09:56:59;;;;;;;170.02;124.90;;;;;;;14.43;100.00;97670.09;1827990;77;21018;-85
2022/10/01 09:59:36;;;;;;;17.75;10.55;;;;;;;14.49;100.00;97675.70;1828303;77;21371;-85
2022/10/01 10:02:02;;;;;;;41.00;37.05;;;;;;;14.54;100.00;97670.69;1827438;77;21060;-85
2022/10/01 10:04:28;;;;;;;17.45;11.38;;;;;;;14.50;100.00;97672.41;1814425;77;21007;-87
2022/10/01 10:07:03;;;;;;;14.58;9.78;;;;;;;14.53;100.00;97666.35;1780291;79;20997;-87
2022/10/01 10:09:32;;;;;;;18.98;14.58;;;;;;;14.55;100.00;97663.55;1739471;82;21467;-87
2022/10/01 10:11:58;;;;;;;13.85;10.18;;;;;;;14.54;100.00;97666.03;1771883;79;21435;-85
2022/10/01 10:14:31;;;;;;;11.00;7.62;;;;;;;14.57;100.00;97665.95;1830310;77;21001;-87
2022/10/01 10:16:58;;;;;;;10.15;7.60;;;;;;;14.58;100.00;97662.91;1827770;77;20970;-85
2022/10/01 10:19:26;;;;;;;12.68;8.05;;;;;;;14.55;100.00;97655.94;1805102;78;21001;-87
2022/10/01 10:21:56;;;;;;;11.48;7.42;;;;;;;14.52;100.00;97660.06;1825904;77;21013;-87
2022/10/01 10:24:31;;;;;;;15.05;12.78;;;;;;;14.49;100.00;97659.34;1800905;78;21894;-87
2022/10/01 10:26:59;;;;;;;14.65;11.80;;;;;;;14.37;100.00;97655.02;1818488;76;20967;-87
2022/10/01 10:29:32;;;;;;;14.55;11.45;;;;;;;14.34;100.00;97647.45;1828301;78;21407;-87
2022/10/01 10:32:00;;;;;;;11.75;9.18;;;;;;;14.32;100.00;97641.52;1807562;78;20993;-87
2022/10/01 10:34:38;;;;;;;11.38;8.48;;;;;;;14.35;100.00;97638.15;1750350;80;21457;-87
2022/10/01 10:37:14;;;;;;;11.30;7.53;;;;;;;14.43;100.00;97630.58;1752012;79;21080;-87
2022/10/01 10:39:41;;;;;;;15.03;8.95;;;;;;;14.51;100.00;97631.20;1756464;80;21452;-84
2022/10/01 10:42:07;;;;;;;18.92;12.60;;;;;;;14.57;100.00;97623.14;1751987;79;21084;-87
2022/10/01 10:44:38;;;;;;;20.35;12.35;;;;;;;14.58;100.00;97618.48;1746313;80;21012;-85
2022/10/01 10:47:12;;;;;;;16.27;10.68;;;;;;;14.59;100.00;97610.55;1775105;79;20992;-85
2022/10/01 10:50:00;;;;;;;13.32;9.25;;;;;;;14.61;100.00;97605.05;1845941;77;21285;-87
2022/10/01 10:52:32;;;;;;;12.23;9.08;;;;;;;14.65;100.00;97609.30;1845491;76;21441;-88
2022/10/01 10:55:02;;;;;;;15.98;10.48;;;;;;;14.68;100.00;97602.64;1830066;77;21056;-84
2022/10/01 10:57:33;;;;;;;14.10;9.75;;;;;;;14.73;100.00;97596.81;1783743;79;21011;-85
2022/10/01 11:00:20;;;;;;;35.50;25.43;;;;;;;14.77;100.00;97590.39;1796824;77;21007;-87
2022/10/01 11:03:02;;;;;;;21.50;16.17;;;;;;;14.82;100.00;97586.16;1808306;76;21264;-87
2022/10/01 11:05:31;;;;;;;23.87;14.60;;;;;;;14.93;100.00;97584.73;1800331;76;20998;-87
2022/10/01 11:08:00;;;;;;;42.65;33.08;;;;;;;15.04;100.00;97583.05;1828249;77;20973;-85
2022/10/01 11:10:52;;;;;;;45.95;23.32;;;;;;;15.05;100.00;97571.05;1828190;78;21089;-87
2022/10/01 11:13:59;;;;;;;122.15;74.70;;;;;;;15.03;100.00;97579.53;1827914;77;21522;-84
2022/10/01 11:16:55;;;;;;;32.85;22.98;;;;;;;14.90;100.00;97574.47;1826973;77;21129;-85
2022/10/01 11:19:39;;;;;;;52.95;25.65;;;;;;;14.86;100.00;97568.03;1823137;78;21041;-87
2022/10/01 11:22:28;;;;;;;58.70;41.70;;;;;;;14.97;100.00;97566.38;1827936;77;21025;-88
2022/10/01 11:25:33;;;;;;;33.42;25.15;;;;;;;14.83;100.00;97555.03;1822009;77;21025;-85
2022/10/01 11:28:24;;;;;;;44.25;27.93;;;;;;;14.84;100.00;97552.55;1828163;77;20969;-85
2022/10/01 11:31:14;;;;;;;11.83;8.95;;;;;;;14.82;100.00;97546.61;1826969;78;21141;-85
2022/10/01 11:34:01;;;;;;;12.78;9.75;;;;;;;14.75;100.00;97540.82;1827564;77;21073;-87
2022/10/01 11:36:32;;;;;;;43.78;34.13;;;;;;;14.84;100.00;97532.66;1826281;76;21013;-85
2022/10/01 11:39:04;;;;;;;16.10;13.30;;;;;;;14.84;100.00;97523.91;1826130;77;20978;-85
2022/10/01 11:41:47;;;;;;;15.60;10.18;;;;;;;15.00;100.00;97528.91;1827436;78;21092;-85
2022/10/01 11:44:36;;;;;;;16.45;11.18;;;;;;;15.27;100.00;97523.69;1827933;77;21177;-88
2022/10/01 11:47:11;;;;;;;;;;;;;;;15.58;100.00;97518.05;1830691;77;20990;-87
2022/10/01 11:50:17;;;;;;;19.62;12.60;;;;;;;15.63;100.00;97509.69;1828425;77;20234;-87
2022/10/01 11:52:55;;;;;;;10.88;7.33;;;;;;;15.74;100.00;97509.04;1827763;77;20967;-88
2022/10/01 11:58:52;;;;;;;8.15;6.92;;;;;;;15.59;100.00;97508.16;1827939;77;21860;-87
2022/10/01 12:01:46;;;;;;;7.37;6.12;;;;;;;15.49;100.00;97504.41;1808468;76;21046;-85
2022/10/01 12:04:37;;;;;;;35.85;19.95;;;;;;;15.44;100.00;97496.37;1825485;77;21063;-87
2022/10/01 12:07:11;;;;;;;26.48;19.32;;;;;;;15.47;100.00;97496.55;1840755;77;20958;-85
2022/10/01 12:10:00;;;;;;;19.85;14.03;;;;;;;15.41;100.00;97488.84;1828526;77;21422;-85
2022/10/01 12:12:35;;;;;;;13.25;8.48;;;;;;;15.37;100.00;97488.66;1827907;77;21166;-87
2022/10/01 12:15:22;;;;;;;9.33;7.28;;;;;;;15.33;100.00;97487.72;1828180;78;21414;-87
2022/10/01 12:18:19;;;;;;;9.10;6.12;;;;;;;15.34;100.00;97484.42;1827794;77;20998;-86
2022/10/01 12:20:51;;;;;;;6.03;4.78;;;;;;;15.19;100.00;97482.98;1818782;76;20966;-87
2022/10/01 12:23:27;;;;;;;7.17;5.28;;;;;;;15.08;100.00;97476.27;1813826;77;21241;-87
2022/10/01 12:26:23;;;;;;;6.72;4.30;;;;;;;15.05;100.00;97468.17;1826744;78;21461;-85
2022/10/01 12:29:03;;;;;;;11.60;8.58;;;;;;;15.10;100.00;97464.45;1828035;77;20974;-85
2022/10/01 12:31:49;;;;;;;10.23;7.40;;;;;;;15.19;100.00;97466.61;1827661;78;21497;-85
2022/10/01 12:34:21;;;;;;;18.45;11.95;;;;;;;15.19;100.00;97463.32;1790083;78;20973;-87
2022/10/01 12:37:08;;;;;;;14.85;10.03;;;;;;;15.13;100.00;97450.19;1828072;77;20993;-87
2022/10/01 12:40:02;;;;;;;16.00;10.13;;;;;;;15.10;100.00;97445.36;1827736;78;21800;-86
2022/10/01 12:42:58;;;;;;;18.37;10.58;;;;;;;15.18;100.00;97446.72;1827758;77;20986;-88
2022/10/01 12:45:38;;;;;;;8.55;6.22;;;;;;;15.36;100.00;97438.49;1827896;78;21009;-88
2022/10/01 12:48:19;;;;;;;5.75;4.20;;;;;;;15.45;100.00;97438.70;1827984;77;20989;-85
2022/10/01 12:51:14;;;;;;;7.60;5.42;;;;;;;15.37;100.00;97434.07;1805096;78;20973;-85
2022/10/01 12:53:44;;;;;;;5.42;4.22;;;;;;;15.38;100.00;97431.61;1819321;77;20975;-87
2022/10/01 12:56:20;;;;;;;7.78;5.78;;;;;;;15.41;100.00;97426.05;1768486;80;21008;-85
2022/10/01 12:59:30;;;;;;;6.35;5.17;;;;;;;15.44;100.00;97422.09;1753411;80;21596;-84
2022/10/01 13:02:38;;;;;;;8.80;6.35;;;;;;;15.42;100.00;97422.19;1785644;79;20993;-85
2022/10/01 13:05:28;;;;;;;5.90;4.40;;;;;;;15.33;100.00;97415.39;1784423;79;21043;-86
2022/10/01 13:08:17;;;;;;;4.87;3.75;;;;;;;15.24;100.00;97414.05;1789976;78;21125;-85
2022/10/01 13:10:58;;;;;;;6.03;5.08;;;;;;;15.24;100.00;97410.52;1758541;81;21572;-87
2022/10/01 13:13:32;;;;;;;7.65;4.67;;;;;;;15.26;100.00;97415.64;1764195;79;21051;-88
2022/10/01 13:16:09;;;;;;;5.90;4.15;;;;;;;15.27;100.00;97411.78;1762399;80;20989;-87
2022/10/01 13:18:53;;;;;;;14.15;9.40;;;;;;;15.24;100.00;97411.88;1771330;80;21422;-85
2022/10/01 13:21:45;;;;;;;18.42;14.20;;;;;;;15.19;100.00;97414.20;1778443;79;21772;-85
2022/10/01 13:24:27;;;;;;;13.40;9.65;;;;;;;15.15;100.00;97411.09;1776293;80;20968;-87
2022/10/01 13:27:07;;;;;;;20.57;14.00;;;;;;;15.12;100.00;97406.27;1810341;79;21010;-87
2022/10/01 13:29:58;;;;;;;24.87;16.25;;;;;;;15.03;100.00;97410.94;1811053;78;21050;-87
2022/10/01 13:32:33;;;;;;;15.95;10.25;;;;;;;14.97;100.00;97408.16;1826941;76;21041;-88
2022/10/01 13:35:03;;;;;;;12.33;8.88;;;;;;;14.90;100.00;97404.55;1827662;78;22286;-84
2022/10/01 13:37:38;;;;;;;14.15;9.78;;;;;;;14.88;100.00;97400.78;1820777;77;20974;-88
2022/10/01 13:40:30;;;;;;;19.42;10.58;;;;;;;14.86;100.00;97398.11;1827870;77;21037;-85
2022/10/01 13:43:19;;;;;;;9.43;7.28;;;;;;;14.81;100.00;97398.30;1827407;77;20962;-87
2022/10/01 13:45:46;;;;;;;6.83;5.53;;;;;;;14.85;100.00;97389.70;1820089;78;20995;-85
2022/10/01 13:48:25;;;;;;;6.53;3.80;;;;;;;14.95;100.00;97382.54;1810917;79;21102;-87
2022/10/01 13:51:07;;;;;;;4.67;3.05;;;;;;;15.06;100.00;97376.20;1810814;78;20948;-87
2022/10/01 13:53:58;;;;;;;8.40;5.47;;;;;;;15.08;100.00;97374.75;1810986;78;21016;-84
2022/10/01 13:56:35;;;;;;;26.05;15.98;;;;;;;15.10;100.00;97371.13;1811255;79;20959;-86
2022/10/01 13:59:04;;;;;;;6.97;5.58;;;;;;;15.15;100.00;97368.23;1791846;78;20960;-85
2022/10/01 14:01:39;;;;;;;7.20;5.70;;;;;;;15.15;100.00;97373.69;1804223;78;21154;-87
2022/10/01 14:04:31;;;;;;;11.15;8.58;;;;;;;15.12;100.00;97374.89;1823601;78;21048;-85
2022/10/01 14:07:02;;;;;;;20.57;13.48;;;;;;;15.12;100.00;97378.98;1814350;78;20939;-87
2022/10/01 14:09:31;;;;;;;39.60;24.25;;;;;;;15.08;100.00;97365.77;1794111;78;20869;-85
2022/10/01 14:17:43;;;;;;;40.83;23.92;;;;;;;14.87;100.00;97371.91;1778142;79;20983;-85
2022/10/01 14:20:23;;;;;;;51.45;28.85;;;;;;;14.87;100.00;97364.29;1778455;79;20992;-85
2022/10/01 14:23:12;;;;;;;47.35;30.52;;;;;;;14.90;100.00;97356.25;1776717;78;21000;-85
2022/10/01 14:25:50;;;;;;;52.08;38.02;;;;;;;14.91;100.00;97351.03;1827562;77;21017;-88
2022/10/01 14:28:30;;;;;;;36.20;26.55;;;;;;;14.90;100.00;97348.63;1787209;78;21132;-88
2022/10/01 14:31:26;;;;;;;42.10;27.95;;;;;;;14.89;100.00;97338.84;1828163;77;20986;-85
2022/10/01 14:34:26;;;;;;;38.42;25.70;;;;;;;14.89;100.00;97338.84;1828038;77;21033;-85
2022/10/01 14:36:52;;;;;;;31.90;23.45;;;;;;;14.86;100.00;97343.00;1827992;77;20962;-88
2022/10/01 14:39:29;;;;;;;40.55;27.65;;;;;;;14.84;100.00;97339.80;1827953;77;20832;-85
2022/10/01 14:41:56;;;;;;;33.67;23.35;;;;;;;14.84;100.00;97339.00;1818910;77;21852;-88
2022/10/01 14:44:39;;;;;;;36.63;20.97;;;;;;;14.82;100.00;97343.98;1811387;79;21015;-88
2022/10/01 14:47:19;;;;;;;27.62;19.77;;;;;;;14.84;100.00;97337.08;1796537;78;21002;-85
2022/10/01 14:49:45;;;;;;;21.60;15.35;;;;;;;14.85;100.00;97338.67;1811576;78;21015;-88
2022/10/01 14:52:26;;;;;;;26.25;17.05;;;;;;;14.85;100.00;97335.15;1811347;78;21019;-89
2022/10/01 14:55:00;;;;;;;19.15;13.68;;;;;;;14.81;100.00;97335.00;1811965;79;21077;-88
2022/10/01 14:57:37;;;;;;;24.92;15.10;;;;;;;14.83;100.00;97337.41;1774808;79;21104;-87
2022/10/01 15:00:22;;;;;;;15.90;11.08;;;;;;;14.82;100.00;97335.80;1772414;81;21410;-85
2022/10/01 15:03:14;;;;;;;22.02;14.05;;;;;;;14.81;100.00;97338.30;1772323;81;21418;-85
2022/10/01 15:05:40;;;;;;;34.40;18.42;;;;;;;14.80;100.00;97336.13;1792607;79;21520;-88
2022/10/01 15:08:18;;;;;;;16.52;11.60;;;;;;;14.79;100.00;97333.17;1816849;79;21028;-88
2022/10/01 15:10:52;;;;;;;13.85;9.18;;;;;;;14.77;100.00;97340.85;1825222;76;21032;-86
2022/10/01 15:13:26;;;;;;;10.13;7.10;;;;;;;14.70;100.00;97331.55;1842113;76;21020;-85
2022/10/01 15:15:51;;;;;;;12.47;8.13;;;;;;;14.66;100.00;97332.77;1805247;78;21494;-85
2022/10/01 15:18:17;;;;;;;22.60;14.45;;;;;;;14.63;100.00;97332.86;1827946;77;20890;-87
2022/10/01 15:20:56;;;;;;;49.98;33.30;;;;;;;14.53;100.00;97335.13;1828396;78;21339;-88
2022/10/01 15:23:24;;;;;;;30.65;20.92;;;;;;;14.47;100.00;97337.77;1825727;77;21410;-85
2022/10/01 15:25:51;;;;;;;40.67;33.23;;;;;;;14.39;100.00;97340.13;1828070;77;20970;-88
2022/10/01 15:28:30;;;;;;;40.55;30.30;;;;;;;14.28;100.00;97340.78;1827921;77;20990;-88
2022/10/01 15:31:02;;;;;;;39.92;32.50;;;;;;;14.07;100.00;97339.22;1827200;77;21049;-85
2022/10/01 15:33:34;;;;;;;33.02;24.50;;;;;;;13.93;100.00;97342.10;1827887;77;21146;-88
2022/10/01 15:36:03;;;;;;;38.35;25.85;;;;;;;13.80;100.00;97345.74;1805369;78;21052;-85
2022/10/01 15:38:30;;;;;;;;;;;;;;;13.79;100.00;97348.23;1830521;77;21435;-86
2022/10/01 15:40:58;;;;;;;35.48;26.10;;;;;;;13.71;100.00;97337.55;1832733;77;20446;-84
2022/10/01 15:43:35;;;;;;;34.98;25.15;;;;;;;13.59;100.00;97323.76;1828037;77;20998;-85
2022/10/01 15:46:10;;;;;;;39.15;27.90;;;;;;;13.56;100.00;97324.38;1805170;78;40651;-88
2022/10/01 15:48:37;;;;;;;41.70;33.65;;;;;;;13.53;100.00;97335.90;1827904;77;20954;-85
2022/10/01 15:51:06;;;;;;;45.88;33.13;;;;;;;13.52;100.00;97335.09;1828002;77;20966;-88
2022/10/01 15:53:32;;;;;;;48.68;31.12;;;;;;;13.52;100.00;97322.05;1827861;77;21005;-88
2022/10/01 15:55:59;;;;;;;47.00;31.15;;;;;;;13.51;100.00;97318.53;1828391;77;21619;-85
2022/10/01 15:58:37;;;;;;;58.63;39.15;;;;;;;13.51;100.00;97331.34;1827864;77;21414;-88
2022/10/01 16:01:12;;;;;;;41.35;29.27;;;;;;;13.49;100.00;97328.10;1828138;77;20995;-88
2022/10/01 16:03:53;;;;;;;64.53;43.30;;;;;;;13.46;100.00;97333.63;1822026;77;20954;-85
2022/10/01 16:06:25;;;;;;;89.75;56.60;;;;;;;13.45;100.00;97328.50;1814041;77;20991;-85
2022/10/01 16:09:11;;;;;;;102.80;65.05;;;;;;;13.44;100.00;97330.42;1810486;78;21000;-87
2022/10/01 16:11:53;;;;;;;88.80;57.25;;;;;;;13.36;100.00;97327.67;1775209;79;21315;-84
2022/10/01 16:14:33;;;;;;;101.40;67.00;;;;;;;13.34;100.00;97333.99;1810984;77;21054;-87
2022/10/01 16:17:23;;;;;;;95.03;62.60;;;;;;;13.32;100.00;97338.36;1810934;78;21188;-85
2022/10/01 16:19:50;;;;;;;;;;;;;;;13.30;100.00;97337.08;1813062;79;21515;-85
2022/10/01 16:22:33;;;;;;;123.38;74.60;;;;;;;13.25;100.00;97338.04;1811246;78;20235;-86
2022/10/01 16:25:24;;;;;;;136.82;82.08;;;;;;;13.20;100.00;97339.52;1811414;78;21407;-85
2022/10/01 16:28:02;;;;;;;106.97;69.15;;;;;;;13.18;100.00;97343.89;1811227;78;21014;-85
2022/10/01 16:30:29;;;;;;;105.32;66.95;;;;;;;13.15;100.00;97348.57;1811536;78;20952;-85
2022/10/01 16:32:58;;;;;;;88.22;58.85;;;;;;;13.12;100.00;97349.77;1810977;78;20992;-87
2022/10/01 16:35:31;;;;;;;165.50;101.60;;;;;;;13.09;100.00;97340.88;1811417;78;21070;-85
2022/10/01 16:37:57;;;;;;;170.70;103.85;;;;;;;13.04;100.00;97340.45;1811213;79;21772;-85
2022/10/01 16:40:29;;;;;;;141.55;85.97;;;;;;;13.00;100.00;97344.91;1810963;79;21011;-87
2022/10/01 16:42:55;;;;;;;128.00;79.45;;;;;;;12.98;100.00;97345.76;1811181;79;21003;-85
2022/10/01 16:45:28;;;;;;;117.62;72.85;;;;;;;12.95;100.00;97340.95;1813970;76;21046;-85
2022/10/01 16:47:55;;;;;;;47.00;29.67;;;;;;;12.92;100.00;97341.03;1832654;77;20990;-87
2022/10/01 16:50:22;;;;;;;26.20;18.50;;;;;;;12.90;100.00;97337.83;1805384;77;21493;-86
2022/10/01 16:53:00;;;;;;;34.88;21.77;;;;;;;12.88;100.00;97331.88;1827952;77;20978;-85
2022/10/01 16:55:35;;;;;;;41.55;25.37;;;;;;;12.88;100.00;97332.43;1827723;78;20989;-87
2022/10/01 16:57:57;;;;;;;61.90;36.10;;;;;;;12.88;100.00;97322.91;1827312;77;20990;-85
2022/10/01 17:00:25;;;;;;;29.30;20.75;;;;;;;12.88;100.00;97321.55;1828125;78;20902;-87
2022/10/01 17:02:52;;;;;;;38.60;25.37;;;;;;;12.88;100.00;97322.91;1827962;77;21284;-87
2022/10/01 17:05:32;;;;;;;42.17;27.30;;;;;;;12.86;100.00;97320.52;1815191;77;20998;-85
2022/10/01 17:08:00;;;;;;;56.70;34.70;;;;;;;12.85;100.00;97327.63;1804421;78;21450;-87
2022/10/01 17:10:31;;;;;;;36.50;22.90;;;;;;;12.84;100.00;97327.38;1776181;79;21045;-86
2022/10/01 17:12:58;;;;;;;36.30;26.12;;;;;;;12.80;100.00;97332.62;1795364;79;20995;-87
2022/10/01 17:15:26;;;;;;;28.45;20.77;;;;;;;12.78;100.00;97325.34;1793846;79;21120;-87
2022/10/01 17:17:53;;;;;;;24.65;17.85;;;;;;;12.74;100.00;97328.45;1784170;80;21042;-85
2022/10/01 17:20:20;;;;;;;26.20;17.25;;;;;;;12.70;100.00;97323.37;1788385;78;20963;-88
2022/10/01 17:22:47;;;;;;;28.38;19.67;;;;;;;12.66;100.00;97329.99;1827883;77;21387;-87
2022/10/01 17:25:20;;;;;;;31.97;20.82;;;;;;;12.61;100.00;97327.39;1805348;76;21013;-85
2022/10/01 17:27:46;;;;;;;37.23;23.92;;;;;;;12.56;100.00;97325.34;1824824;77;21206;-84
2022/10/01 17:30:13;;;;;;;39.58;23.27;;;;;;;12.50;100.00;97316.52;1825708;77;20933;-84
2022/10/01 17:32:39;;;;;;;33.50;20.72;;;;;;;12.48;100.00;97313.32;1827907;77;20977;-88
2022/10/01 17:35:06;;;;;;;29.12;17.65;;;;;;;12.46;100.00;97306.02;1827653;78;22007;-85
2022/10/01 17:37:33;;;;;;;24.23;18.75;;;;;;;12.50;100.00;97304.86;1828119;77;21056;-85
2022/10/01 17:40:00;;;;;;;27.40;18.62;;;;;;;12.47;100.00;97302.18;1828270;77;21135;-88
2022/10/01 17:42:26;;;;;;;18.98;12.90;;;;;;;12.44;100.00;97300.09;1828166;77;21167;-85
2022/10/01 17:44:53;;;;;;;24.52;16.30;;;;;;;12.45;100.00;97298.17;1828456;77;21454;-88
2022/10/01 17:47:19;;;;;;;21.05;11.35;;;;;;;12.45;100.00;97305.77;1824713;77;21068;-85
2022/10/01 17:49:45;;;;;;;30.90;17.10;;;;;;;12.46;100.00;97297.06;1813622;78;20857;-88
2022/10/01 17:52:11;;;;;;;35.52;19.95;;;;;;;12.46;100.00;97297.06;1828156;77;21282;-85
2022/10/01 17:54:37;;;;;;;45.70;26.35;;;;;;;12.46;100.00;97288.91;1828135;78;20969;-85
2022/10/01 17:57:04;;;;;;;21.82;14.73;;;;;;;12.44;100.00;97274.28;1828342;77;20894;-86
2022/10/01 17:59:30;;;;;;;89.60;49.67;;;;;;;12.44;100.00;97272.92;1829165;76;21014;-88
2022/10/01 18:01:56;;;;;;;137.37;69.27;;;;;;;12.38;100.00;97283.66;1814113;77;21073;-88
2022/10/01 18:04:24;;;;;;;99.37;52.62;;;;;;;12.31;100.00;97286.02;1811135;78;21241;-85
2022/10/01 18:06:53;;;;;;;99.37;49.63;;;;;;;12.21;100.00;97285.69;1810116;78;21039;-85
2022/10/01 18:09:20;;;;;;;113.20;60.95;;;;;;;12.15;100.00;97284.22;1812337;77;21744;-87
2022/10/01 18:11:47;;;;;;;169.00;86.10;;;;;;;12.04;100.00;97284.98;1811186;78;20988;-86
2022/10/01 18:14:14;;;;;;;112.72;62.58;;;;;;;11.99;100.00;97283.77;1810986;79;21444;-86
2022/10/01 18:16:39;;;;;;;104.07;57.00;;;;;;;11.95;100.00;97276.52;1787420;78;21002;-87
2022/10/01 18:19:08;;;;;;;94.67;54.50;;;;;;;11.95;100.00;97282.75;1795228;79;21659;-86
2022/10/01 18:21:33;;;;;;;83.80;41.90;;;;;;;11.96;100.00;97286.27;1793086;78;21030;-88
2022/10/01 18:24:00;;;;;;;96.57;43.63;;;;;;;11.95;100.00;97288.19;1810394;77;20933;-87
2022/10/01 18:26:26;;;;;;;87.40;48.25;;;;;;;11.92;100.00;97284.73;1821541;76;21002;-87
2022/10/01 18:28:52;;;;;;;83.87;40.78;;;;;;;11.89;100.00;97282.64;1822493;77;21086;-85
2022/10/01 18:31:27;;;;;;;69.82;38.80;;;;;;;11.88;100.00;97280.20;1825221;77;20921;-85
2022/10/01 18:33:56;;;;;;;52.48;29.77;;;;;;;11.89;100.00;97284.00;1814578;77;21003;-85
2022/10/01 18:36:40;;;;;;;;;;;;;;;11.92;100.00;97290.72;1814515;77;21003;-88
2022/10/01 18:39:17;;;;;;;42.67;27.22;;;;;;;11.91;100.00;97296.70;1837851;76;20175;-87
2022/10/01 18:41:43;;;;;;;41.08;27.48;;;;;;;11.90;100.00;97296.47;1830924;77;21004;-88
2022/10/01 18:44:12;;;;;;;73.40;40.78;;;;;;;11.85;100.00;97304.70;1827547;77;20977;-85
2022/10/01 18:46:52;;;;;;;89.60;47.78;;;;;;;11.82;100.00;97303.97;1825199;77;20995;-85
2022/10/01 18:49:54;;;;;;;73.12;43.58;;;;;;;11.77;100.00;97297.25;1825766;77;20986;-88